Huvudsida
METAR-TAF:

METAR-TAF

Flygplatser :

Katarinaklostret, Egypten

latitud: 28-41-07N, longitud: 034-03-45E, höjd: 1331 m

METAR: saknas

Tid: 16:12 (14:12 UTC)

Väderprognos

Denna rapport gjordes för 3 timmar och 2 minuter sedan, klockan 11:10 UTC
Prognos gäller från 24 kl. 12 UTC till 25 kl. 18 UTC
Vind 10 kt från nord/nordost
Sikt 10 km eller mer
Inga moln under 1 500 m eller inga cumulonimbus

TAF: HESC 241110Z 2412/2518 02010KT CAVOK

Aktuella väderrapporter och prognoser från 4000 flygplatser (METAR- och TAF-rapporter).

De tillgängliga stationerna syns som gula och röda prickar på kartan.

För musen över prickarna för att se namnen på stationerna.

Klicka sedan för att få väderrapporter och prognoser.

För att ändra kartan: Klicka på de gröna knapparna med ett svart kors på för att zooma in; den gröna knappen med ett streck på för att zooma ut; eller på de gröna pilarna för angränsande kartor.


METAR-TAF: